^^
Your Local Weather - Clay, NY Station Historical Data
Daily Summary for November 28, 2017 Units:  English    Metric   Both
« Previous Day
Next Day »
Daily Weekly Monthly Yearly Custom
  High: Low: Average:
Temperature: 59.3 °F 21.7 °F 40.2 °F
Dew Point: 35.3 °F 16.1 °F 26.2 °F
Humidity: 85% 35% 61%
Wind Speed: 8.0mph 1.0mph 4.1mph
Wind Gust: 18.0mph - -
Wind- - SE
Pressure: 30.27 in 29.92 in -
Precipitation: 0.00 in    
Historical Graphs
 
 
Tabular Data for November 28, 2017
Time Temperature Dew Point Pressure Wind Wind Speed Wind Gust Humidity Rainfall Rate (Hourly) solar
00:04 23.0 °F 17.2 °F 30.26 in East 1.0 mph 1.0 mph 78% 0.00 in 0 W/m2
00:10 23.1 °F 17.0 °F 30.26 in ENE 1.0 mph 8.0 mph 77% 0.00 in 0 W/m2
00:16 23.1 °F 17.0 °F 30.26 in ENE 2.0 mph 8.0 mph 77% 0.00 in 0 W/m2
00:22 23.1 °F 17.0 °F 30.26 in East 2.0 mph 2.0 mph 77% 0.00 in 0 W/m2
00:28 23.1 °F 17.0 °F 30.26 in East 1.0 mph 2.0 mph 77% 0.00 in 0 W/m2
00:34 23.1 °F 17.0 °F 30.26 in East 1.0 mph 2.0 mph 77% 0.00 in 0 W/m2
00:40 23.0 °F 16.9 °F 30.26 in East 1.0 mph 1.0 mph 77% 0.00 in 0 W/m2
00:46 22.9 °F 16.8 °F 30.26 in SE 1.0 mph 1.0 mph 77% 0.00 in 0 W/m2
00:52 22.8 °F 17.0 °F 30.26 in SE 1.0 mph 1.0 mph 78% 0.00 in 0 W/m2
00:58 22.8 °F 17.0 °F 30.27 in East 1.0 mph 2.0 mph 78% 0.00 in 0 W/m2
01:04 22.8 °F 17.0 °F 30.27 in SE 1.0 mph 1.0 mph 78% 0.00 in 0 W/m2
01:10 22.6 °F 16.8 °F 30.27 in ENE 1.0 mph 2.0 mph 78% 0.00 in 0 W/m2
01:16 22.6 °F 16.8 °F 30.27 in East 2.0 mph 5.0 mph 78% 0.00 in 0 W/m2
01:22 22.6 °F 16.8 °F 30.26 in East 2.0 mph 3.0 mph 78% 0.00 in 0 W/m2
01:28 22.5 °F 16.7 °F 30.27 in ESE 2.0 mph 3.0 mph 78% 0.00 in 0 W/m2
01:34 22.5 °F 16.4 °F 30.27 in ESE 1.0 mph 3.0 mph 77% 0.00 in 0 W/m2
01:40 22.5 °F 16.4 °F 30.27 in ESE 2.0 mph 2.0 mph 77% 0.00 in 0 W/m2
01:46 22.5 °F 16.4 °F 30.27 in ENE 2.0 mph 2.0 mph 77% 0.00 in 0 W/m2
01:52 22.4 °F 16.3 °F 30.27 in East 2.0 mph 3.0 mph 77% 0.00 in 0 W/m2
01:58 22.3 °F 16.2 °F 30.26 in SE 2.0 mph 3.0 mph 77% 0.00 in 0 W/m2
02:04 22.3 °F 16.2 °F 30.26 in ENE 2.0 mph 5.0 mph 77% 0.00 in 0 W/m2
02:10 22.2 °F 16.1 °F 30.26 in SE 1.0 mph 2.0 mph 77% 0.00 in 0 W/m2
02:16 22.2 °F 16.4 °F 30.26 in SE 1.0 mph 3.0 mph 78% 0.00 in 0 W/m2
02:22 22.0 °F 16.2 °F 30.26 in ESE 2.0 mph 2.0 mph 78% 0.00 in 0 W/m2
02:28 22.1 °F 16.3 °F 30.26 in SE 3.0 mph 3.0 mph 78% 0.00 in 0 W/m2
02:34 22.0 °F 16.2 °F 30.26 in East 2.0 mph 3.0 mph 78% 0.00 in 0 W/m2
02:40 22.0 °F 16.5 °F 30.25 in ESE 2.0 mph 2.0 mph 79% 0.00 in 0 W/m2
02:46 21.9 °F 16.4 °F 30.25 in ESE 1.0 mph 3.0 mph 79% 0.00 in 0 W/m2
02:52 21.9 °F 16.4 °F 30.26 in East 1.0 mph 1.0 mph 79% 0.00 in 0 W/m2
02:58 21.8 °F 16.6 °F 30.26 in East 1.0 mph 1.0 mph 80% 0.00 in 0 W/m2
03:04 21.9 °F 16.7 °F 30.25 in ENE 1.0 mph 2.0 mph 80% 0.00 in 0 W/m2
03:10 21.8 °F 16.6 °F 30.25 in ENE 2.0 mph 2.0 mph 80% 0.00 in 0 W/m2
03:16 21.7 °F 16.5 °F 30.25 in ENE 1.0 mph 2.0 mph 80% 0.00 in 0 W/m2
03:22 21.8 °F 16.9 °F 30.24 in ENE 1.0 mph 2.0 mph 81% 0.00 in 0 W/m2
03:28 21.8 °F 16.9 °F 30.24 in ENE 1.0 mph 2.0 mph 81% 0.00 in 0 W/m2
03:34 21.9 °F 17.0 °F 30.24 in ENE 2.0 mph 4.0 mph 81% 0.00 in 0 W/m2
03:40 22.0 °F 17.1 °F 30.23 in East 2.0 mph 2.0 mph 81% 0.00 in 0 W/m2
03:46 22.1 °F 17.2 °F 30.23 in East 2.0 mph 3.0 mph 81% 0.00 in 0 W/m2
03:52 22.2 °F 17.3 °F 30.23 in East 2.0 mph 2.0 mph 81% 0.00 in 0 W/m2
03:58 22.3 °F 17.4 °F 30.24 in East 2.0 mph 2.0 mph 81% 0.00 in 0 W/m2
04:04 22.3 °F 17.4 °F 30.24 in East 1.0 mph 3.0 mph 81% 0.00 in 0 W/m2
04:10 22.4 °F 17.7 °F 30.24 in East 2.0 mph 2.0 mph 82% 0.00 in 0 W/m2
04:16 22.4 °F 17.7 °F 30.24 in ENE 2.0 mph 3.0 mph 82% 0.00 in 0 W/m2
04:22 22.6 °F 17.9 °F 30.25 in NE 2.0 mph 2.0 mph 82% 0.00 in 0 W/m2
04:28 22.7 °F 18.0 °F 30.25 in ENE 3.0 mph 5.0 mph 82% 0.00 in 0 W/m2
04:34 22.9 °F 18.2 °F 30.25 in East 4.0 mph 7.0 mph 82% 0.00 in 0 W/m2
04:40 23.1 °F 18.4 °F 30.25 in ENE 3.0 mph 3.0 mph 82% 0.00 in 0 W/m2
04:46 23.3 °F 18.9 °F 30.25 in ENE 3.0 mph 3.0 mph 83% 0.00 in 0 W/m2
04:52 23.5 °F 19.1 °F 30.24 in ESE 3.0 mph 5.0 mph 83% 0.00 in 0 W/m2
04:58 23.6 °F 19.5 °F 30.23 in East 3.0 mph 6.0 mph 84% 0.00 in 0 W/m2
05:04 23.8 °F 19.7 °F 30.23 in East 4.0 mph 7.0 mph 84% 0.00 in 0 W/m2
05:10 23.9 °F 19.8 °F 30.23 in ENE 3.0 mph 3.0 mph 84% 0.00 in 0 W/m2
05:16 24.0 °F 20.1 °F 30.23 in ENE 3.0 mph 4.0 mph 85% 0.00 in 0 W/m2
05:22 24.4 °F 20.5 °F 30.23 in East 3.0 mph 3.0 mph 85% 0.00 in 0 W/m2
05:28 24.6 °F 20.7 °F 30.23 in East 3.0 mph 7.0 mph 85% 0.00 in 0 W/m2
05:34 24.7 °F 20.8 °F 30.22 in East 3.0 mph 5.0 mph 85% 0.00 in 0 W/m2
05:40 24.8 °F 20.9 °F 30.22 in East 3.0 mph 7.0 mph 85% 0.00 in 0 W/m2
05:46 25.0 °F 21.1 °F 30.21 in ENE 3.0 mph 7.0 mph 85% 0.00 in 0 W/m2
05:52 25.1 °F 21.2 °F 30.22 in ENE 3.0 mph 3.0 mph 85% 0.00 in 0 W/m2
05:58 25.2 °F 21.3 °F 30.22 in ENE 3.0 mph 3.0 mph 85% 0.00 in 0 W/m2
06:04 25.4 °F 21.5 °F 30.23 in ENE 3.0 mph 4.0 mph 85% 0.00 in 0 W/m2
06:10 25.6 °F 21.7 °F 30.22 in East 4.0 mph 4.0 mph 85% 0.00 in 0 W/m2
06:16 25.7 °F 21.8 °F 30.22 in ENE 4.0 mph 5.0 mph 85% 0.00 in 0 W/m2
06:22 25.7 °F 21.8 °F 30.22 in East 3.0 mph 5.0 mph 85% 0.00 in 0 W/m2
06:28 25.9 °F 22.0 °F 30.22 in ENE 3.0 mph 5.0 mph 85% 0.00 in 0 W/m2
06:34 26.0 °F 21.8 °F 30.22 in East 4.0 mph 7.0 mph 84% 0.00 in 0 W/m2
06:40 26.1 °F 21.9 °F 30.21 in ENE 4.0 mph 4.0 mph 84% 0.00 in 0 W/m2
06:46 26.1 °F 21.9 °F 30.22 in ENE 4.0 mph 7.0 mph 84% 0.00 in 0 W/m2
06:52 26.1 °F 21.9 °F 30.22 in East 3.0 mph 4.0 mph 84% 0.00 in 0 W/m2
06:58 26.0 °F 21.8 °F 30.22 in ESE 3.0 mph 4.0 mph 84% 0.00 in 0 W/m2
07:04 26.1 °F 21.9 °F 30.22 in SE 3.0 mph 5.0 mph 84% 0.00 in 0 W/m2
07:36 26.3 °F 22.1 °F 30.21 in ENE 2.0 mph 5.0 mph 84% 0.00 in 25 W/m2
07:42 26.4 °F 21.9 °F 30.21 in ENE 3.0 mph 8.0 mph 83% 0.00 in 33 W/m2
07:48 26.7 °F 22.2 °F 30.21 in ENE 3.0 mph 8.0 mph 83% 0.00 in 33 W/m2
07:54 26.8 °F 22.3 °F 30.21 in ENE 3.0 mph 7.0 mph 83% 0.00 in 39 W/m2
08:00 27.0 °F 22.2 °F 30.21 in East 3.0 mph 3.0 mph 82% 0.00 in 46 W/m2
08:06 27.1 °F 22.3 °F 30.22 in NE 3.0 mph 4.0 mph 82% 0.00 in 51 W/m2
08:12 27.3 °F 22.5 °F 30.21 in ENE 3.0 mph 3.0 mph 82% 0.00 in 67 W/m2
08:18 27.6 °F 22.8 °F 30.22 in East 2.0 mph 5.0 mph 82% 0.00 in 90 W/m2
08:24 27.8 °F 23.0 °F 30.21 in ENE 3.0 mph 4.0 mph 82% 0.00 in 65 W/m2
08:30 28.0 °F 23.2 °F 30.21 in East 2.0 mph 2.0 mph 82% 0.00 in 67 W/m2
08:36 28.3 °F 23.5 °F 30.20 in ENE 2.0 mph 3.0 mph 82% 0.00 in 137 W/m2
08:48 29.5 °F 24.1 °F 30.20 in ENE 3.0 mph 6.0 mph 80% 0.00 in 197 W/m2
08:54 29.8 °F 24.1 °F 30.20 in ESE 4.0 mph 7.0 mph 79% 0.00 in 239 W/m2
09:00 30.4 °F 24.7 °F 30.20 in ESE 4.0 mph 4.0 mph 79% 0.00 in 234 W/m2
09:06 30.9 °F 24.8 °F 30.20 in ENE 3.0 mph 4.0 mph 78% 0.00 in 232 W/m2
09:12 31.3 °F 24.9 °F 30.20 in ENE 3.0 mph 3.0 mph 77% 0.00 in 204 W/m2
09:24 31.9 °F 25.2 °F 30.20 in East 4.0 mph 9.0 mph 76% 0.00 in 279 W/m2
09:30 32.6 °F 25.6 °F 30.20 in ENE 4.0 mph 4.0 mph 75% 0.00 in 283 W/m2
09:36 33.4 °F 26.0 °F 30.20 in ENE 3.0 mph 5.0 mph 74% 0.00 in 323 W/m2
09:42 33.8 °F 26.1 °F 30.20 in ENE 3.0 mph 3.0 mph 73% 0.00 in 334 W/m2
09:48 34.8 °F 26.7 °F 30.20 in ENE 2.0 mph 8.0 mph 72% 0.00 in 341 W/m2
09:54 34.1 °F 26.0 °F 30.20 in ENE 3.0 mph 5.0 mph 72% 0.00 in 353 W/m2
10:00 34.6 °F 26.8 °F 30.20 in ENE 4.0 mph 4.0 mph 73% 0.00 in 373 W/m2
10:18 36.9 °F 27.3 °F 30.20 in East 2.0 mph 3.0 mph 68% 0.00 in 373 W/m2
10:24 37.2 °F 27.6 °F 30.19 in ENE 3.0 mph 9.0 mph 68% 0.00 in 364 W/m2
10:42 39.2 °F 29.2 °F 30.18 in East 4.0 mph 5.0 mph 67% 0.00 in 383 W/m2
10:54 40.0 °F 29.2 °F 30.17 in ESE 4.0 mph 4.0 mph 65% 0.00 in 352 W/m2
11:00 40.7 °F 29.1 °F 30.17 in East 3.0 mph 3.0 mph 63% 0.00 in 397 W/m2
11:06 41.3 °F 29.6 °F 30.16 in East 3.0 mph 5.0 mph 63% 0.00 in 425 W/m2
11:12 42.2 °F 30.1 °F 30.15 in East 3.0 mph 5.0 mph 62% 0.00 in 429 W/m2
11:24 43.3 °F 29.9 °F 30.14 in ENE 3.0 mph 4.0 mph 59% 0.00 in 424 W/m2
11:36 45.2 °F 31.3 °F 30.13 in ENE 3.0 mph 6.0 mph 58% 0.00 in 439 W/m2
11:42 46.9 °F 32.0 °F 30.12 in ENE 3.0 mph 3.0 mph 56% 0.00 in 441 W/m2
11:54 51.9 °F 35.3 °F 30.11 in SE 3.0 mph 7.0 mph 53% 0.00 in 445 W/m2
12:00 53.0 °F 34.3 °F 30.11 in SSE 4.0 mph 4.0 mph 49% 0.00 in 443 W/m2
12:12 54.1 °F 33.8 °F 30.10 in SSE 5.0 mph 5.0 mph 46% 0.00 in 445 W/m2
12:18 54.5 °F 34.7 °F 30.10 in SE 4.0 mph 6.0 mph 47% 0.00 in 441 W/m2
12:24 55.1 °F 34.7 °F 30.10 in South 4.0 mph 4.0 mph 46% 0.00 in 439 W/m2
12:30 55.7 °F 33.5 °F 30.10 in SSE 3.0 mph 5.0 mph 43% 0.00 in 438 W/m2
12:36 56.1 °F 34.5 °F 30.09 in SSE 3.0 mph 5.0 mph 44% 0.00 in 434 W/m2
12:42 56.6 °F 33.8 °F 30.09 in SSW 1.0 mph 4.0 mph 42% 0.00 in 431 W/m2
12:54 56.9 °F 33.4 °F 30.08 in South 3.0 mph 5.0 mph 41% 0.00 in 422 W/m2
13:00 57.9 °F 32.4 °F 30.07 in South 5.0 mph 7.0 mph 38% 0.00 in 425 W/m2
13:06 58.0 °F 33.8 °F 30.07 in South 7.0 mph 8.0 mph 40% 0.00 in 417 W/m2
13:12 58.3 °F 33.4 °F 30.07 in South 6.0 mph 7.0 mph 39% 0.00 in 406 W/m2
13:18 58.6 °F 33.0 °F 30.07 in South 5.0 mph 7.0 mph 38% 0.00 in 399 W/m2
13:24 58.2 °F 32.7 °F 30.06 in SSW 6.0 mph 12.0 mph 38% 0.00 in 392 W/m2
13:30 58.0 °F 32.5 °F 30.06 in South 8.0 mph 8.0 mph 38% 0.00 in 383 W/m2
13:36 58.5 °F 32.3 °F 30.06 in South 6.0 mph 8.0 mph 37% 0.00 in 376 W/m2
13:42 58.7 °F 32.5 °F 30.05 in SW 6.0 mph 8.0 mph 37% 0.00 in 367 W/m2
13:48 59.0 °F 32.1 °F 30.05 in SW 6.0 mph 9.0 mph 36% 0.00 in 359 W/m2
13:54 59.3 °F 32.3 °F 30.05 in SSW 5.0 mph 6.0 mph 36% 0.00 in 345 W/m2
14:06 58.5 °F 32.3 °F 30.04 in SSE 7.0 mph 10.0 mph 37% 0.00 in 329 W/m2
14:12 58.6 °F 32.4 °F 30.04 in SSE 7.0 mph 8.0 mph 37% 0.00 in 320 W/m2
14:18 58.3 °F 32.1 °F 30.04 in South 7.0 mph 10.0 mph 37% 0.00 in 306 W/m2
14:24 58.1 °F 31.9 °F 30.04 in SSW 7.0 mph 14.0 mph 37% 0.00 in 292 W/m2
14:30 58.2 °F 32.7 °F 30.04 in SE 8.0 mph 8.0 mph 38% 0.00 in 272 W/m2
14:36 58.3 °F 31.4 °F 30.04 in SSE 7.0 mph 11.0 mph 36% 0.00 in 260 W/m2
14:48 58.3 °F 31.4 °F 30.04 in SSE 6.0 mph 9.0 mph 36% 0.00 in 246 W/m2
14:54 58.0 °F 30.5 °F 30.04 in South 7.0 mph 14.0 mph 35% 0.00 in 236 W/m2
15:00 57.9 °F 31.8 °F 30.04 in SSE 7.0 mph 7.0 mph 37% 0.00 in 220 W/m2
15:06 57.9 °F 31.1 °F 30.04 in South 7.0 mph 11.0 mph 36% 0.00 in 206 W/m2
15:12 58.0 °F 31.2 °F 30.04 in SSE 6.0 mph 7.0 mph 36% 0.00 in 192 W/m2
15:18 58.0 °F 30.5 °F 30.04 in South 6.0 mph 7.0 mph 35% 0.00 in 178 W/m2
15:24 57.8 °F 30.3 °F 30.04 in South 6.0 mph 6.0 mph 35% 0.00 in 163 W/m2
15:30 57.8 °F 31.7 °F 30.04 in SSW 5.0 mph 5.0 mph 37% 0.00 in 149 W/m2
15:36 57.8 °F 31.0 °F 30.04 in SSW 5.0 mph 8.0 mph 36% 0.00 in 130 W/m2
15:42 57.5 °F 30.7 °F 30.04 in SSW 4.0 mph 5.0 mph 36% 0.00 in 25 W/m2
15:48 57.1 °F 31.0 °F 30.03 in South 3.0 mph 11.0 mph 37% 0.00 in 65 W/m2
15:54 57.0 °F 31.0 °F 30.03 in SSE 5.0 mph 9.0 mph 37% 0.00 in 74 W/m2
16:00 56.6 °F 31.3 °F 30.03 in South 5.0 mph 5.0 mph 38% 0.00 in 18 W/m2
16:06 56.2 °F 30.9 °F 30.03 in SSE 4.0 mph 8.0 mph 38% 0.00 in 16 W/m2
16:18 55.8 °F 30.5 °F 30.02 in South 5.0 mph 7.0 mph 38% 0.00 in 11 W/m2
16:24 55.5 °F 30.9 °F 30.02 in SSE 5.0 mph 6.0 mph 39% 0.00 in 9 W/m2
16:30 55.2 °F 30.7 °F 30.02 in South 4.0 mph 7.0 mph 39% 0.00 in 5 W/m2
16:36 55.1 °F 30.6 °F 30.02 in SSE 6.0 mph 10.0 mph 39% 0.00 in 0 W/m2
16:42 54.9 °F 30.4 °F 30.02 in SW 6.0 mph 9.0 mph 39% 0.00 in 0 W/m2
16:48 54.5 °F 30.6 °F 30.02 in South 6.0 mph 9.0 mph 40% 0.00 in 0 W/m2
16:54 54.5 °F 30.6 °F 30.01 in SSE 6.0 mph 6.0 mph 40% 0.00 in 0 W/m2
17:00 54.6 °F 30.7 °F 30.01 in South 8.0 mph 11.0 mph 40% 0.00 in 0 W/m2
17:18 54.4 °F 31.2 °F 30.02 in South 7.0 mph 8.0 mph 41% 0.00 in 0 W/m2
17:24 54.4 °F 31.2 °F 30.02 in SSE 7.0 mph 11.0 mph 41% 0.00 in 0 W/m2
17:30 54.4 °F 31.2 °F 30.01 in SSE 8.0 mph 11.0 mph 41% 0.00 in 0 W/m2
17:36 54.3 °F 31.7 °F 30.02 in South 8.0 mph 12.0 mph 42% 0.00 in 0 W/m2
17:42 54.2 °F 31.6 °F 30.02 in South 7.0 mph 7.0 mph 42% 0.00 in 0 W/m2
17:54 53.9 °F 31.9 °F 30.02 in South 6.0 mph 6.0 mph 43% 0.00 in 0 W/m2
18:00 53.8 °F 31.8 °F 30.01 in SSE 6.0 mph 6.0 mph 43% 0.00 in 0 W/m2
18:12 53.4 °F 31.4 °F 30.01 in SSE 5.0 mph 7.0 mph 43% 0.00 in 0 W/m2
18:18 53.6 °F 31.6 °F 30.01 in South 6.0 mph 13.0 mph 43% 0.00 in 0 W/m2
18:30 53.2 °F 31.8 °F 30.01 in SSW 5.0 mph 5.0 mph 44% 0.00 in 0 W/m2
18:36 53.3 °F 31.9 °F 30.01 in SSE 5.0 mph 6.0 mph 44% 0.00 in 0 W/m2
18:42 53.2 °F 31.8 °F 30.01 in SSE 5.0 mph 8.0 mph 44% 0.00 in 0 W/m2
18:48 53.2 °F 31.8 °F 30.01 in SSW 5.0 mph 8.0 mph 44% 0.00 in 0 W/m2
18:54 53.2 °F 31.8 °F 30.01 in SSW 6.0 mph 6.0 mph 44% 0.00 in 0 W/m2
19:00 53.2 °F 31.8 °F 30.01 in South 6.0 mph 6.0 mph 44% 0.00 in 0 W/m2
19:06 53.1 °F 32.3 °F 30.00 in South 5.0 mph 6.0 mph 45% 0.00 in 0 W/m2
19:12 52.8 °F 32.0 °F 30.00 in South 4.0 mph 9.0 mph 45% 0.00 in 0 W/m2
19:30 52.5 °F 32.3 °F 30.00 in SW 5.0 mph 5.0 mph 46% 0.00 in 0 W/m2
19:36 52.5 °F 31.8 °F 30.00 in South 5.0 mph 5.0 mph 45% 0.00 in 0 W/m2
19:42 52.5 °F 32.3 °F 30.00 in SSW 5.0 mph 5.0 mph 46% 0.00 in 0 W/m2
19:54 52.5 °F 32.3 °F 29.99 in SSE 5.0 mph 6.0 mph 46% 0.00 in 0 W/m2
20:00 52.5 °F 32.3 °F 29.99 in South 6.0 mph 7.0 mph 46% 0.00 in 0 W/m2
20:06 52.9 °F 32.1 °F 29.99 in SSW 7.0 mph 11.0 mph 45% 0.00 in 0 W/m2
20:12 52.9 °F 32.7 °F 29.99 in South 7.0 mph 7.0 mph 46% 0.00 in 0 W/m2
20:18 52.6 °F 32.4 °F 29.99 in South 6.0 mph 7.0 mph 46% 0.00 in 0 W/m2
20:24 52.4 °F 32.2 °F 29.99 in South 5.0 mph 8.0 mph 46% 0.00 in 0 W/m2
20:30 52.3 °F 32.1 °F 29.99 in SSW 5.0 mph 7.0 mph 46% 0.00 in 0 W/m2
20:36 52.7 °F 32.5 °F 29.99 in South 6.0 mph 18.0 mph 46% 0.00 in 0 W/m2
20:42 52.6 °F 32.4 °F 29.98 in SSW 7.0 mph 11.0 mph 46% 0.00 in 0 W/m2
20:54 52.6 °F 32.4 °F 29.98 in SSW 7.0 mph 7.0 mph 46% 0.00 in 0 W/m2
21:00 52.5 °F 32.3 °F 29.98 in South 7.0 mph 7.0 mph 46% 0.00 in 0 W/m2
21:06 52.4 °F 32.2 °F 29.98 in SSW 7.0 mph 15.0 mph 46% 0.00 in 0 W/m2
21:12 52.4 °F 32.7 °F 29.97 in SSW 7.0 mph 9.0 mph 47% 0.00 in 0 W/m2
21:24 52.4 °F 32.7 °F 29.97 in SW 6.0 mph 6.0 mph 47% 0.00 in 0 W/m2
21:30 52.4 °F 32.7 °F 29.97 in South 5.0 mph 5.0 mph 47% 0.00 in 0 W/m2
21:36 52.5 °F 32.3 °F 29.97 in South 6.0 mph 7.0 mph 46% 0.00 in 0 W/m2
21:48 52.5 °F 32.8 °F 29.97 in SSW 6.0 mph 8.0 mph 47% 0.00 in 0 W/m2
21:54 52.6 °F 32.9 °F 29.97 in South 6.0 mph 13.0 mph 47% 0.00 in 0 W/m2
22:00 52.6 °F 32.4 °F 29.95 in SSE 7.0 mph 7.0 mph 46% 0.00 in 0 W/m2
22:06 52.6 °F 32.9 °F 29.95 in SSE 7.0 mph 7.0 mph 47% 0.00 in 0 W/m2
22:28 52.6 °F 32.4 °F 29.94 in SSE 7.0 mph 15.0 mph 46% 0.00 in 0 W/m2
22:34 52.6 °F 32.4 °F 29.95 in SSW 7.0 mph 8.0 mph 46% 0.00 in 0 W/m2
22:42 52.6 °F 32.4 °F 29.94 in SSW 6.0 mph 11.0 mph 46% 0.00 in 0 W/m2
22:48 52.5 °F 32.3 °F 29.94 in South 6.0 mph 11.0 mph 46% 0.00 in 0 W/m2
22:50 52.6 °F 32.4 °F 29.92 in SSE 6.0 mph 8.0 mph 46% 0.00 in 0 W/m2
22:56 52.6 °F 32.4 °F 29.92 in SSW 7.0 mph 10.0 mph 46% 0.00 in 0 W/m2
23:12 53.1 °F 32.3 °F 29.94 in SSW 7.0 mph 7.0 mph 45% 0.00 in 0 W/m2
23:18 52.8 °F 32.0 °F 29.94 in SSW 7.0 mph 8.0 mph 45% 0.00 in 0 W/m2
23:24 52.7 °F 31.9 °F 29.93 in West 6.0 mph 7.0 mph 45% 0.00 in 0 W/m2
23:30 52.6 °F 32.4 °F 29.94 in SSW 7.0 mph 7.0 mph 46% 0.00 in 0 W/m2
23:36 52.4 °F 32.2 °F 29.93 in SW 7.0 mph 12.0 mph 46% 0.00 in 0 W/m2
Country Meadow, Clay, NY, USA
Compliments of Weather Underground - 2 mb